Marit — LAQV7 — position and weather

sailwx.info

Track history (hours):
 
Tides and Currents Weather Stations Pressure Air Temp Water Temp Dewpoint Dewpoint Depression Visibility Wind Speed Wind Dir Waves Ship Positions

Marit

Last reported at 2018-Jun-18 04:30 UTC. Time now 2018-Jun-18 09:20 UTC.
Position N 38°57' E 011°25'.

Length 156 m; draft 7.8 m.

Type: Tanker. MMSI: 258276000.

Date/timePositionNaut miles runAvg speedWind from/ knotsBaromVisibWave heightAir tempDewpointWater temp
2018-Jun-18 04:30N 38°57' E 011°25'2213.5
2018-Jun-18 02:51N 39°18' E 011°16'613.7
2018-Jun-18 02:24N 39°23' E 011°13'20313.6
2018-Jun-17 11:26N 42°36' E 009°50'613.8
2018-Jun-17 11:00N 42°42' E 009°53'713.9
2018-Jun-17 10:30N 42°48' E 009°58'713.7
2018-Jun-17 10:00N 42°54' E 010°01'714.1
2018-Jun-17 09:30N 43°01' E 010°03'714.2
2018-Jun-17 09:00N 43°08' E 010°05'714.2
2018-Jun-17 08:30N 43°15' E 010°07'714.2
2018-Jun-17 08:00N 43°22' E 010°09'714.1
2018-Jun-17 07:30N 43°29' E 010°12'611.2
2018-Jun-17 07:00N 43°32' E 010°17'2 5.0
2018-Jun-17 06:30N 43°35' E 010°19'0 0.9
2018-Jun-17 06:00N 43°35' E 010°19'0 0.0
2018-Jun-17 05:23N 43°35' E 010°19'0 0.0
2018-Jun-17 04:59N 43°35' E 010°19'0 0.0
2018-Jun-17 04:29N 43°35' E 010°19'0 0.0
2018-Jun-17 03:59N 43°35' E 010°19'0 0.0
2018-Jun-17 03:29N 43°35' E 010°19'0 0.0
2018-Jun-17 02:59N 43°35' E 010°19'0 0.0
2018-Jun-17 02:29N 43°35' E 010°19'0 0.0
2018-Jun-17 01:59N 43°35' E 010°19'0 0.0
2018-Jun-17 01:29N 43°35' E 010°19'0 0.0
2018-Jun-17 00:53N 43°35' E 010°19'0 0.0
2018-Jun-17 00:17N 43°35' E 010°19'0 0.0
2018-Jun-16 23:59N 43°35' E 010°19'0 0.0
2018-Jun-16 23:29N 43°35' E 010°19'0 0.0
2018-Jun-16 22:59N 43°35' E 010°19'0 0.0
2018-Jun-16 22:29N 43°35' E 010°19'0 0.0
2018-Jun-16 21:59N 43°35' E 010°19'0 0.0
2018-Jun-16 21:29N 43°35' E 010°19'0 0.0
2018-Jun-16 20:59N 43°35' E 010°19'0 0.0
2018-Jun-16 20:29N 43°35' E 010°19'0 0.0
2018-Jun-16 19:59N 43°35' E 010°19'0 0.0
2018-Jun-16 19:29N 43°35' E 010°19'0 0.0
2018-Jun-16 18:59N 43°35' E 010°19'0 0.0
2018-Jun-16 18:29N 43°35' E 010°19'0 0.0
2018-Jun-16 17:59N 43°35' E 010°19'0 0.0
2018-Jun-16 17:29N 43°35' E 010°19'0 0.0
2018-Jun-16 16:59N 43°35' E 010°19'0 0.0
2018-Jun-16 16:29N 43°35' E 010°19'0 0.0
2018-Jun-16 15:59N 43°35' E 010°19'0 0.0
2018-Jun-16 15:29N 43°35' E 010°19'0 0.0
2018-Jun-16 14:53N 43°35' E 010°19'0 0.0
2018-Jun-16 14:29N 43°35' E 010°19'0 0.0
2018-Jun-16 13:59N 43°35' E 010°19'0 0.0
2018-Jun-16 13:29N 43°35' E 010°19'0 0.0
2018-Jun-16 12:59N 43°35' E 010°19'0 0.0
2018-Jun-16 12:29N 43°35' E 010°19'0 0.0
2018-Jun-16 11:53N 43°35' E 010°19'0 0.0
2018-Jun-16 11:29N 43°35' E 010°19'0 0.0
2018-Jun-16 10:59N 43°35' E 010°19'0 0.0
2018-Jun-16 10:29N 43°35' E 010°19'0 0.0
2018-Jun-16 09:59N 43°35' E 010°19'0 0.0
2018-Jun-16 09:29N 43°35' E 010°19'0 0.0
2018-Jun-16 08:59N 43°35' E 010°19'0 0.0
2018-Jun-16 08:23N 43°35' E 010°19'0 0.0
2018-Jun-16 07:53N 43°35' E 010°19'0 0.0
2018-Jun-16 07:29N 43°35' E 010°19'0 0.0
2018-Jun-16 06:59N 43°35' E 010°19'1 1.1
2018-Jun-16 06:30N 43°35' E 010°19'1 2.9
2018-Jun-16 06:00N 43°33' E 010°18'4 7.4
2018-Jun-16 05:30N 43°30' E 010°15'3 5.8
2018-Jun-16 05:00N 43°28' E 010°13'0 0.1
2018-Jun-16 04:30N 43°28' E 010°13'1 1.6
2018-Jun-16 04:01N 43°27' E 010°12'3 5.7
2018-Jun-16 03:30N 43°26' E 010°09'612.4
2018-Jun-16 03:00N 43°21' E 010°04'612.6
2018-Jun-16 02:30N 43°17' E 009°57'612.9
2018-Jun-16 02:00N 43°15' E 009°48'712.9
2018-Jun-16 01:30N 43°14' E 009°40'813.0
2018-Jun-16 00:51N 43°12' E 009°28'513.2
2018-Jun-16 00:30N 43°11' E 009°22'713.5
2018-Jun-16 00:00N 43°08' E 009°14'713.7
2018-Jun-15 23:31N 43°06' E 009°05'713.8
2018-Jun-15 23:00N 43°03' E 008°57'713.5
2018-Jun-15 22:30N 43°00' E 008°48'713.1
2018-Jun-15 22:00N 42°58' E 008°40'612.9
2018-Jun-15 21:31N 42°55' E 008°32'712.7
2018-Jun-15 21:00N 42°52' E 008°24'612.9
2018-Jun-15 20:30N 42°50' E 008°16'612.9
2018-Jun-15 20:00N 42°47' E 008°08'612.9
2018-Jun-15 19:30N 42°44' E 007°60'712.9
2018-Jun-15 18:57N 42°42' E 007°51'612.9
2018-Jun-15 18:30N 42°39' E 007°44'1212.9
2018-Jun-15 17:34N 42°35' E 007°29'3013.4
2018-Jun-15 15:21N 42°22' E 006°52'614.5
2018-Jun-15 14:57N 42°20' E 006°45'714.8
2018-Jun-15 14:30N 42°17' E 006°37'714.4
2018-Jun-15 14:00N 42°15' E 006°28'714.3
2018-Jun-15 13:30N 42°12' E 006°19'814.2
2018-Jun-15 12:58N 42°08' E 006°09'17212.7
2018-Jun-14 23:28N 40°59' E 002°39'5813.8
2018-Jun-14 19:18N 40°36' E 001°30'10713.3
2018-Jun-14 11:15N 39°26' W 000°15'3 9.1
2018-Jun-14 10:57N 39°26' W 000°19'1 0.0
2018-Jun-13 14:23N 39°27' W 000°19'0 1.3
2018-Jun-13 14:00N 39°27' W 000°19'4 6.5
2018-Jun-13 13:21N 39°24' W 000°14'0 0.3
2018-Jun-13 13:00N 39°24' W 000°14'0 0.2
2018-Jun-13 12:26N 39°25' W 000°14'1 1.2
2018-Jun-13 12:00N 39°24' W 000°13'12712.3
2018-Jun-13 01:42N 39°06' E 002°29'312.4
2018-Jun-13 01:30N 39°05' E 002°32'612.3
2018-Jun-13 00:59N 39°04' E 002°40'612.3
2018-Jun-13 00:30N 39°02' E 002°47'712.1
2018-Jun-12 23:56N 39°01' E 002°56'512.6
2018-Jun-12 23:30N 38°59' E 003°02'4012.6
2018-Jun-12 20:18N 38°50' E 003°53'41612.5
2018-Jun-11 10:54N 36°58' E 012°21'613.3
2018-Jun-11 10:27N 36°56' E 012°28'613.1
2018-Jun-11 10:00N 36°55' E 012°35'913.2
2018-Jun-11 09:20N 36°52' E 012°45'413.1
2018-Jun-11 09:00N 36°51' E 012°51'713.1
2018-Jun-11 08:30N 36°49' E 012°59'1313.1
2018-Jun-11 07:32N 36°45' E 013°14'313.0
2018-Jun-11 07:20N 36°45' E 013°17'413.0
2018-Jun-11 07:00N 36°43' E 013°22'712.9
2018-Jun-11 06:30N 36°41' E 013°30'612.8
2018-Jun-11 06:00N 36°40' E 013°37'  
Track history (hours):
 
Tides and Currents Weather Stations Pressure Air Temp Water Temp Dewpoint Dewpoint Depression Visibility Wind Speed Wind Dir Waves Ship Positions

Marit

Last reported at 2018-Jun-18 04:30 UTC. Time now 2018-Jun-18 09:20 UTC.
Position N 38°57' E 011°25'.

Length 156 m; draft 7.8 m.

Type: Tanker. MMSI: 258276000.

Date/timePositionNaut miles runAvg speedWind from/ knotsBaromVisibWave heightAir tempDewpointWater temp
2018-Jun-18 04:30N 38°57' E 011°25'2213.5
2018-Jun-18 02:51N 39°18' E 011°16'613.7
2018-Jun-18 02:24N 39°23' E 011°13'20313.6
2018-Jun-17 11:26N 42°36' E 009°50'613.8
2018-Jun-17 11:00N 42°42' E 009°53'713.9
2018-Jun-17 10:30N 42°48' E 009°58'713.7
2018-Jun-17 10:00N 42°54' E 010°01'714.1
2018-Jun-17 09:30N 43°01' E 010°03'714.2
2018-Jun-17 09:00N 43°08' E 010°05'714.2
2018-Jun-17 08:30N 43°15' E 010°07'714.2
2018-Jun-17 08:00N 43°22' E 010°09'714.1
2018-Jun-17 07:30N 43°29' E 010°12'611.2
2018-Jun-17 07:00N 43°32' E 010°17'2 5.0
2018-Jun-17 06:30N 43°35' E 010°19'0 0.9
2018-Jun-17 06:00N 43°35' E 010°19'0 0.0
2018-Jun-17 05:23N 43°35' E 010°19'0 0.0
2018-Jun-17 04:59N 43°35' E 010°19'0 0.0
2018-Jun-17 04:29N 43°35' E 010°19'0 0.0
2018-Jun-17 03:59N 43°35' E 010°19'0 0.0
2018-Jun-17 03:29N 43°35' E 010°19'0 0.0
2018-Jun-17 02:59N 43°35' E 010°19'0 0.0
2018-Jun-17 02:29N 43°35' E 010°19'0 0.0
2018-Jun-17 01:59N 43°35' E 010°19'0 0.0
2018-Jun-17 01:29N 43°35' E 010°19'0 0.0
2018-Jun-17 00:53N 43°35' E 010°19'0 0.0
2018-Jun-17 00:17N 43°35' E 010°19'0 0.0
2018-Jun-16 23:59N 43°35' E 010°19'0 0.0
2018-Jun-16 23:29N 43°35' E 010°19'0 0.0
2018-Jun-16 22:59N 43°35' E 010°19'0 0.0
2018-Jun-16 22:29N 43°35' E 010°19'0 0.0
2018-Jun-16 21:59N 43°35' E 010°19'0 0.0
2018-Jun-16 21:29N 43°35' E 010°19'0 0.0
2018-Jun-16 20:59N 43°35' E 010°19'0 0.0
2018-Jun-16 20:29N 43°35' E 010°19'0 0.0
2018-Jun-16 19:59N 43°35' E 010°19'0 0.0
2018-Jun-16 19:29N 43°35' E 010°19'0 0.0
2018-Jun-16 18:59N 43°35' E 010°19'0 0.0
2018-Jun-16 18:29N 43°35' E 010°19'0 0.0
2018-Jun-16 17:59N 43°35' E 010°19'0 0.0
2018-Jun-16 17:29N 43°35' E 010°19'0 0.0
2018-Jun-16 16:59N 43°35' E 010°19'0 0.0
2018-Jun-16 16:29N 43°35' E 010°19'0 0.0
2018-Jun-16 15:59N 43°35' E 010°19'0 0.0
2018-Jun-16 15:29N 43°35' E 010°19'0 0.0
2018-Jun-16 14:53N 43°35' E 010°19'0 0.0
2018-Jun-16 14:29N 43°35' E 010°19'0 0.0
2018-Jun-16 13:59N 43°35' E 010°19'0 0.0
2018-Jun-16 13:29N 43°35' E 010°19'0 0.0
2018-Jun-16 12:59N 43°35' E 010°19'0 0.0
2018-Jun-16 12:29N 43°35' E 010°19'0 0.0
2018-Jun-16 11:53N 43°35' E 010°19'0 0.0
2018-Jun-16 11:29N 43°35' E 010°19'0 0.0
2018-Jun-16 10:59N 43°35' E 010°19'0 0.0
2018-Jun-16 10:29N 43°35' E 010°19'0 0.0
2018-Jun-16 09:59N 43°35' E 010°19'0 0.0
2018-Jun-16 09:29N 43°35' E 010°19'0 0.0
2018-Jun-16 08:59N 43°35' E 010°19'0 0.0
2018-Jun-16 08:23N 43°35' E 010°19'0 0.0
2018-Jun-16 07:53N 43°35' E 010°19'0 0.0
2018-Jun-16 07:29N 43°35' E 010°19'0 0.0
2018-Jun-16 06:59N 43°35' E 010°19'1 1.1
2018-Jun-16 06:30N 43°35' E 010°19'1 2.9
2018-Jun-16 06:00N 43°33' E 010°18'4 7.4
2018-Jun-16 05:30N 43°30' E 010°15'3 5.8
2018-Jun-16 05:00N 43°28' E 010°13'0 0.1
2018-Jun-16 04:30N 43°28' E 010°13'1 1.6
2018-Jun-16 04:01N 43°27' E 010°12'3 5.7
2018-Jun-16 03:30N 43°26' E 010°09'612.4
2018-Jun-16 03:00N 43°21' E 010°04'612.6
2018-Jun-16 02:30N 43°17' E 009°57'612.9
2018-Jun-16 02:00N 43°15' E 009°48'712.9
2018-Jun-16 01:30N 43°14' E 009°40'813.0
2018-Jun-16 00:51N 43°12' E 009°28'513.2
2018-Jun-16 00:30N 43°11' E 009°22'713.5
2018-Jun-16 00:00N 43°08' E 009°14'713.7
2018-Jun-15 23:31N 43°06' E 009°05'713.8
2018-Jun-15 23:00N 43°03' E 008°57'713.5
2018-Jun-15 22:30N 43°00' E 008°48'713.1
2018-Jun-15 22:00N 42°58' E 008°40'612.9
2018-Jun-15 21:31N 42°55' E 008°32'712.7
2018-Jun-15 21:00N 42°52' E 008°24'612.9
2018-Jun-15 20:30N 42°50' E 008°16'612.9
2018-Jun-15 20:00N 42°47' E 008°08'612.9
2018-Jun-15 19:30N 42°44' E 007°60'712.9
2018-Jun-15 18:57N 42°42' E 007°51'612.9
2018-Jun-15 18:30N 42°39' E 007°44'1212.9
2018-Jun-15 17:34N 42°35' E 007°29'3013.4
2018-Jun-15 15:21N 42°22' E 006°52'614.5
2018-Jun-15 14:57N 42°20' E 006°45'714.8
2018-Jun-15 14:30N 42°17' E 006°37'714.4
2018-Jun-15 14:00N 42°15' E 006°28'714.3
2018-Jun-15 13:30N 42°12' E 006°19'814.2
2018-Jun-15 12:58N 42°08' E 006°09'17212.7
2018-Jun-14 23:28N 40°59' E 002°39'5813.8
2018-Jun-14 19:18N 40°36' E 001°30'10713.3
2018-Jun-14 11:15N 39°26' W 000°15'3 9.1
2018-Jun-14 10:57N 39°26' W 000°19'1 0.0
2018-Jun-13 14:23N 39°27' W 000°19'0 1.3
2018-Jun-13 14:00N 39°27' W 000°19'4 6.5
2018-Jun-13 13:21N 39°24' W 000°14'0 0.3
2018-Jun-13 13:00N 39°24' W 000°14'0 0.2
2018-Jun-13 12:26N 39°25' W 000°14'1 1.2
2018-Jun-13 12:00N 39°24' W 000°13'12712.3
2018-Jun-13 01:42N 39°06' E 002°29'312.4
2018-Jun-13 01:30N 39°05' E 002°32'612.3
2018-Jun-13 00:59N 39°04' E 002°40'612.3
2018-Jun-13 00:30N 39°02' E 002°47'712.1
2018-Jun-12 23:56N 39°01' E 002°56'512.6
2018-Jun-12 23:30N 38°59' E 003°02'4012.6
2018-Jun-12 20:18N 38°50' E 003°53'41612.5
2018-Jun-11 10:54N 36°58' E 012°21'613.3
2018-Jun-11 10:27N 36°56' E 012°28'613.1
2018-Jun-11 10:00N 36°55' E 012°35'913.2
2018-Jun-11 09:20N 36°52' E 012°45'413.1
2018-Jun-11 09:00N 36°51' E 012°51'713.1
2018-Jun-11 08:30N 36°49' E 012°59'1313.1
2018-Jun-11 07:32N 36°45' E 013°14'313.0
2018-Jun-11 07:20N 36°45' E 013°17'413.0
2018-Jun-11 07:00N 36°43' E 013°22'712.9
2018-Jun-11 06:30N 36°41' E 013°30'612.8
2018-Jun-11 06:00N 36°40' E 013°37'  

Dump ship's entire track history